Time;durP1;ratioP1;P1;durP2;ratioP2;P2;SDS_P1;SDS_P2;PMS_P1;PMS_P2;Temp;Humidity;BMP_temperature;BMP_pressure;BME280_temperature;BME280_humidity;BME280_pressure;Samples;Min_cycle;Max_cycle;Signal;HPM_P1;HPM_P2
2021/10/12 00:00:23;;;;;;;58.42;29.92;;;;;;;14.62;100.00;99528.53;4992346;28;20048;-74
2021/10/12 00:02:48;;;;;;;60.08;30.05;;;;;;;14.32;100.00;99503.03;4991348;28;20046;-73
2021/10/12 00:05:14;;;;;;;56.47;28.98;;;;;;;14.20;100.00;99521.38;4990524;28;20042;-74
2021/10/12 00:07:39;;;;;;;55.10;29.75;;;;;;;14.29;100.00;99522.88;4997543;28;20030;-73
2021/10/12 00:10:07;;;;;;;54.88;28.38;;;;;;;14.30;100.00;99521.88;5000179;28;20038;-73
2021/10/12 00:12:32;;;;;;;56.20;28.98;;;;;;;14.14;100.00;99516.81;5002544;28;20030;-73
2021/10/12 00:14:58;;;;;;;50.17;27.65;;;;;;;14.13;100.00;99512.50;4995583;28;20066;-74
2021/10/12 00:17:23;;;;;;;56.35;30.17;;;;;;;14.11;100.00;99517.19;4988865;28;20328;-74
2021/10/12 00:19:49;;;;;;;52.63;27.85;;;;;;;14.00;100.00;99499.88;4983117;28;20077;-74
2021/10/12 00:22:14;;;;;;;60.53;30.38;;;;;;;14.04;100.00;99500.31;5000023;28;20030;-74
2021/10/12 00:24:40;;;;;;;55.05;29.02;;;;;;;14.14;100.00;99490.19;4988446;28;20037;-74
2021/10/12 00:27:05;;;;;;;52.30;27.58;;;;;;;14.41;100.00;99482.41;4993524;28;20014;-73
2021/10/12 00:29:31;;;;;;;49.72;27.85;;;;;;;14.33;100.00;99468.22;4988513;28;20019;-73
2021/10/12 00:31:56;;;;;;;51.25;28.30;;;;;;;14.46;100.00;99475.50;5005154;28;20093;-74
2021/10/12 00:34:22;;;;;;;48.47;27.95;;;;;;;14.56;100.00;99473.34;5003476;28;20327;-74
2021/10/12 00:36:47;;;;;;;43.17;26.65;;;;;;;14.86;100.00;99473.97;4988125;28;20030;-74
2021/10/12 00:39:13;;;;;;;76.05;33.53;;;;;;;14.86;100.00;99465.16;4994296;28;20030;-74
2021/10/12 00:41:40;;;;;;;64.13;32.38;;;;;;;15.04;100.00;99468.13;4993221;28;20196;-74
2021/10/12 00:44:07;;;;;;;67.38;30.95;;;;;;;15.14;100.00;99476.56;4998874;28;20049;-73
2021/10/12 00:46:32;;;;;;;46.67;27.17;;;;;;;15.00;100.00;99475.69;4996619;28;20039;-73
2021/10/12 00:48:58;;;;;;;48.55;27.15;;;;;;;14.89;100.00;99464.75;5004063;28;20033;-73
2021/10/12 00:51:25;;;;;;;49.38;28.30;;;;;;;14.88;100.00;99471.09;4988146;28;20105;-74
2021/10/12 00:53:50;;;;;;;50.20;26.63;;;;;;;14.79;100.00;99477.63;4988783;28;20034;-74
2021/10/12 00:56:16;;;;;;;49.28;28.80;;;;;;;14.83;100.00;99481.53;4983986;28;20041;-74
2021/10/12 00:58:41;;;;;;;49.65;29.65;;;;;;;14.81;100.00;99473.72;4982451;28;20065;-74
2021/10/12 01:01:07;;;;;;;49.80;28.95;;;;;;;14.81;100.00;99470.25;4986434;28;20030;-74
2021/10/12 01:03:32;;;;;;;52.53;29.00;;;;;;;14.79;100.00;99461.63;4994411;28;20101;-73
2021/10/12 01:05:58;;;;;;;50.35;27.92;;;;;;;14.82;100.00;99456.72;4990414;28;20056;-73
2021/10/12 01:08:23;;;;;;;50.08;28.25;;;;;;;14.74;100.00;99450.72;4988689;28;20970;-74
2021/10/12 01:10:49;;;;;;;55.17;29.33;;;;;;;14.53;100.00;99456.91;4995529;28;20102;-74
2021/10/12 01:13:15;;;;;;;52.30;27.80;;;;;;;14.57;100.00;99447.53;4982684;28;20106;-74
2021/10/12 01:15:40;;;;;;;54.03;28.77;;;;;;;14.52;100.00;99444.63;4983035;28;20418;-74
2021/10/12 01:18:13;;;;;;;50.13;26.70;;;;;;;14.51;100.00;99445.63;4994638;28;20034;-74
2021/10/12 01:20:40;;;;;;;47.50;27.05;;;;;;;14.63;100.00;99423.59;4987696;28;20029;-74
2021/10/12 01:23:06;;;;;;;44.20;25.20;;;;;;;14.75;100.00;99431.06;4992639;28;20240;-74
2021/10/12 01:25:31;;;;;;;48.83;24.92;;;;;;;14.79;100.00;99421.66;5004519;28;20039;-73
2021/10/12 01:27:57;;;;;;;45.97;25.33;;;;;;;14.75;100.00;99423.88;4998674;28;20022;-73
2021/10/12 01:30:22;;;;;;;40.35;23.90;;;;;;;14.92;100.00;99409.19;4992078;28;20291;-74
2021/10/12 01:32:48;;;;;;;43.63;22.55;;;;;;;14.71;100.00;99364.00;4987599;28;20038;-74
2021/10/12 01:35:15;;;;;;;44.58;24.80;;;;;;;14.81;100.00;99399.09;4988318;28;20054;-74
2021/10/12 01:37:41;;;;;;;48.00;26.33;;;;;;;14.49;100.00;99416.53;4992046;28;20089;-74
2021/10/12 01:40:09;;;;;;;46.85;24.35;;;;;;;14.41;100.00;99413.97;4998749;28;20555;-74
2021/10/12 01:42:35;;;;;;;48.28;25.35;;;;;;;14.49;100.00;99410.38;4997039;28;20095;-74
2021/10/12 01:45:04;;;;;;;46.05;24.45;;;;;;;14.60;100.00;99397.34;4989043;28;20050;-73
2021/10/12 01:47:30;;;;;;;53.42;28.58;;;;;;;14.59;100.00;99397.53;4991673;28;20244;-73
2021/10/12 01:49:56;;;;;;;46.05;23.85;;;;;;;14.74;100.00;99400.91;4987704;28;20313;-73
2021/10/12 01:52:21;;;;;;;42.63;23.85;;;;;;;14.95;100.00;99421.31;4999973;28;20027;-74
2021/10/12 01:54:47;;;;;;;41.53;23.45;;;;;;;14.98;100.00;99415.59;4990701;28;20026;-74
2021/10/12 01:57:12;;;;;;;37.95;23.25;;;;;;;14.93;100.00;99410.84;4992325;28;20046;-73
2021/10/12 01:59:38;;;;;;;39.65;23.17;;;;;;;14.90;100.00;99397.09;4990562;28;20038;-73
2021/10/12 02:02:04;;;;;;;47.38;23.77;;;;;;;14.98;100.00;99403.06;4991232;28;20034;-73
2021/10/12 02:04:31;;;;;;;41.05;23.42;;;;;;;15.10;99.99;99394.50;4990328;28;20342;-74
2021/10/12 02:06:57;;;;;;;38.75;22.27;;;;;;;15.13;99.42;99394.94;5001678;28;20304;-73
2021/10/12 02:09:22;;;;;;;37.95;22.85;;;;;;;14.93;100.00;99386.84;5000013;28;20026;-74
2021/10/12 02:11:48;;;;;;;38.78;21.88;;;;;;;14.88;100.00;99391.13;4988159;28;20034;-73
2021/10/12 02:14:13;;;;;;;42.67;22.40;;;;;;;14.82;99.92;99391.94;4990303;28;20038;-74
2021/10/12 02:16:39;;;;;;;34.65;21.33;;;;;;;14.89;99.50;99387.44;4990161;28;20439;-74
2021/10/12 02:19:05;;;;;;;39.63;22.33;;;;;;;14.65;100.00;99389.59;4989638;28;20039;-74
2021/10/12 02:21:31;;;;;;;40.63;22.40;;;;;;;14.60;100.00;99388.53;5000649;28;20374;-74
2021/10/12 02:23:56;;;;;;;39.13;22.77;;;;;;;14.71;100.00;99376.50;5000745;28;20034;-74
2021/10/12 02:26:22;;;;;;;35.88;22.27;;;;;;;14.92;99.88;99371.06;4987051;28;20045;-73
2021/10/12 02:28:48;;;;;;;35.80;22.05;;;;;;;14.90;99.58;99367.78;4983167;28;20039;-73
2021/10/12 02:31:14;;;;;;;38.00;21.58;;;;;;;14.92;99.75;99366.53;4989387;28;20038;-73
2021/10/12 02:33:40;;;;;;;38.50;21.58;;;;;;;15.02;99.45;99358.19;5005734;28;20022;-73
2021/10/12 02:36:06;;;;;;;39.15;21.17;;;;;;;14.98;99.24;99346.25;4993407;28;20034;-74
2021/10/12 02:38:31;;;;;;;36.60;20.77;;;;;;;15.01;98.08;99346.69;4998148;28;20033;-74
2021/10/12 02:40:57;;;;;;;34.28;20.95;;;;;;;15.04;97.42;99334.81;5003300;28;20042;-74
2021/10/12 02:43:22;;;;;;;34.13;20.65;;;;;;;14.93;98.40;99332.72;5004050;28;20037;-74
2021/10/12 02:45:48;;;;;;;37.03;21.27;;;;;;;14.86;99.57;99327.34;5000899;28;20041;-73
2021/10/12 02:48:14;;;;;;;38.45;21.40;;;;;;;14.85;100.00;99320.38;4995630;28;20260;-73
2021/10/12 02:50:40;;;;;;;40.38;23.45;;;;;;;14.66;100.00;99326.47;4990533;28;20077;-74
2021/10/12 02:53:05;;;;;;;39.75;21.88;;;;;;;14.61;100.00;99319.06;4987309;28;20023;-74
2021/10/12 02:55:31;;;;;;;43.13;23.05;;;;;;;14.64;100.00;99318.66;4992075;28;20081;-74
2021/10/12 02:57:56;;;;;;;50.03;25.13;;;;;;;14.84;100.00;99324.06;4996829;28;20343;-74
2021/10/12 03:00:22;;;;;;;52.92;26.27;;;;;;;14.85;100.00;99315.06;4997111;28;20026;-74
2021/10/12 03:02:47;;;;;;;37.33;22.92;;;;;;;14.93;100.00;99320.22;4996725;28;20034;-74
2021/10/12 03:05:12;;;;;;;38.65;21.63;;;;;;;15.08;98.15;99308.56;5002819;28;20044;-74
2021/10/12 03:07:39;;;;;;;39.47;23.30;;;;;;;14.98;98.86;99317.75;5004046;28;20032;-73
2021/10/12 03:10:06;;;;;;;64.63;27.88;;;;;;;14.93;99.76;99314.88;4991242;28;20030;-73
2021/10/12 03:12:31;;;;;;;44.58;25.35;;;;;;;14.95;100.00;99323.50;4992861;28;20469;-74
2021/10/12 03:14:57;;;;;;;49.15;26.98;;;;;;;14.89;100.00;99318.13;4995543;28;20043;-74
2021/10/12 03:17:22;;;;;;;46.42;26.98;;;;;;;14.77;100.00;99317.91;4993950;28;20030;-74
2021/10/12 03:19:48;;;;;;;41.50;23.63;;;;;;;14.95;100.00;99322.66;4996948;28;20031;-74
2021/10/12 03:22:16;;;;;;;41.03;22.50;;;;;;;14.83;99.98;99295.78;4990771;28;20325;-74
2021/10/12 03:24:42;;;;;;;41.90;22.48;;;;;;;14.94;99.55;99321.03;4996238;28;20038;-73
2021/10/12 03:27:09;;;;;;;45.75;23.67;;;;;;;14.86;100.00;99314.03;4993549;28;20296;-73
2021/10/12 03:29:35;;;;;;;43.70;23.80;;;;;;;14.86;100.00;99314.03;4991442;28;20101;-73
2021/10/12 03:32:00;;;;;;;47.83;24.05;;;;;;;14.76;100.00;99305.59;4989339;28;20092;-74
2021/10/12 03:34:27;;;;;;;49.47;25.52;;;;;;;14.86;100.00;99294.56;4992786;28;20041;-74
2021/10/12 03:36:53;;;;;;;45.45;27.05;;;;;;;15.05;99.25;99295.63;4998075;28;20034;-74
2021/10/12 03:39:20;;;;;;;42.25;24.90;;;;;;;14.88;100.00;99284.50;4993004;28;20064;-74
2021/10/12 03:41:45;;;;;;;44.40;25.15;;;;;;;14.85;100.00;99276.91;4986702;28;20143;-74
2021/10/12 03:44:10;;;;;;;39.97;22.23;;;;;;;14.90;100.00;99288.63;4985392;28;20371;-74
2021/10/12 03:46:36;;;;;;;48.97;24.20;;;;;;;14.94;100.00;99286.38;4994201;28;20035;-74
2021/10/12 03:49:02;;;;;;;43.15;24.75;;;;;;;14.97;100.00;99286.78;4989889;28;20022;-73
2021/10/12 03:51:28;;;;;;;40.67;22.25;;;;;;;15.08;99.40;99285.38;4989069;28;20077;-73
2021/10/12 03:53:53;;;;;;;45.42;24.58;;;;;;;15.12;98.10;99281.28;4994593;28;20030;-74
2021/10/12 03:56:19;;;;;;;45.85;23.98;;;;;;;15.10;99.31;99280.66;4989256;28;20038;-74
2021/10/12 03:58:44;;;;;;;41.38;23.75;;;;;;;15.13;98.79;99279.44;4990177;28;20033;-74
2021/10/12 04:01:09;;;;;;;42.63;23.15;;;;;;;15.13;98.45;99277.59;4984434;28;20049;-74
2021/10/12 04:03:35;;;;;;;42.13;23.92;;;;;;;15.13;98.41;99274.94;4988869;28;20093;-74
2021/10/12 04:06:00;;;;;;;40.03;23.40;;;;;;;15.14;98.65;99281.09;4998173;28;20101;-74
2021/10/12 04:08:26;;;;;;;42.05;23.90;;;;;;;15.10;98.89;99286.00;4993484;28;20044;-73
2021/10/12 04:10:53;;;;;;;45.72;25.98;;;;;;;15.22;97.45;99291.56;4989346;28;20271;-73
2021/10/12 04:13:19;;;;;;;45.17;24.75;;;;;;;15.13;98.24;99280.25;4993206;28;20098;-74
2021/10/12 04:15:44;;;;;;;47.50;24.70;;;;;;;15.13;98.71;99284.78;4990955;28;20042;-74
2021/10/12 04:18:10;;;;;;;44.10;25.13;;;;;;;15.14;98.63;99281.91;4989625;28;20038;-74
2021/10/12 04:20:35;;;;;;;48.00;26.20;;;;;;;15.19;97.73;99270.63;4992564;28;20097;-74
2021/10/12 04:23:02;;;;;;;51.63;28.17;;;;;;;15.06;98.34;99275.94;4984840;28;20078;-74
2021/10/12 04:25:27;;;;;;;43.70;25.77;;;;;;;14.97;98.94;99256.66;4996897;28;20042;-74
2021/10/12 04:27:53;;;;;;;47.17;25.95;;;;;;;14.99;99.13;99258.09;4985100;28;20041;-73
2021/10/12 04:30:19;;;;;;;52.78;27.67;;;;;;;15.11;98.95;99268.97;4995861;28;20041;-73
2021/10/12 04:32:45;;;;;;;51.65;27.08;;;;;;;14.98;99.03;99268.94;4989075;28;20034;-73
2021/10/12 04:35:10;;;;;;;45.90;26.00;;;;;;;15.03;98.73;99282.50;4996254;28;20061;-74
2021/10/12 04:37:35;;;;;;;52.22;27.55;;;;;;;15.02;99.32;99288.84;5002175;28;20256;-73
2021/10/12 04:40:01;;;;;;;46.88;26.13;;;;;;;14.97;99.56;99292.13;4999439;28;20374;-74
2021/10/12 04:42:27;;;;;;;43.78;25.65;;;;;;;14.91;99.80;99284.09;4988267;28;20095;-73
2021/10/12 04:44:55;;;;;;;48.63;27.85;;;;;;;14.87;100.00;99277.53;4999297;28;20085;-73
2021/10/12 04:47:21;;;;;;;63.92;34.78;;;;;;;14.79;100.00;99280.38;5000062;28;20034;-73
2021/10/12 04:49:47;;;;;;;67.65;38.67;;;;;;;14.80;100.00;99276.69;5002050;28;20049;-74
2021/10/12 04:52:13;;;;;;;63.75;35.38;;;;;;;14.82;100.00;99271.97;4993792;28;20330;-74
2021/10/12 04:54:39;;;;;;;60.50;32.53;;;;;;;14.84;100.00;99267.28;4992841;28;20109;-73
2021/10/12 04:57:04;;;;;;;50.90;28.90;;;;;;;14.84;100.00;99269.94;4985159;28;20038;-73
2021/10/12 04:59:30;;;;;;;49.38;28.73;;;;;;;14.91;100.00;99268.13;4988934;28;20295;-73
2021/10/12 05:01:55;;;;;;;49.92;28.08;;;;;;;14.85;100.00;99269.75;4984613;28;20033;-74
2021/10/12 05:04:21;;;;;;;46.67;26.45;;;;;;;14.81;100.00;99265.00;4992224;28;20924;-73
2021/10/12 05:06:49;;;;;;;54.13;30.55;;;;;;;14.79;100.00;99264.38;4992647;28;20271;-73
2021/10/12 05:09:15;;;;;;;61.72;39.13;;;;;;;14.87;100.00;99261.53;4991462;28;20046;-74
2021/10/12 05:11:40;;;;;;;69.82;42.25;;;;;;;14.72;100.00;99253.72;4997110;28;20037;-74
2021/10/12 05:14:06;;;;;;;52.97;29.75;;;;;;;14.61;100.00;99254.28;4993900;28;20045;-73
2021/10/12 05:16:32;;;;;;;57.47;29.75;;;;;;;14.69;100.00;99246.13;4996088;28;20053;-73
2021/10/12 05:19:00;;;;;;;62.80;31.08;;;;;;;14.66;100.00;99244.69;4995261;28;20338;-73
2021/10/12 05:21:30;;;;;;;63.40;30.08;;;;;;;14.76;100.00;99243.47;4998108;28;20030;-74
2021/10/12 05:23:56;;;;;;;63.63;29.73;;;;;;;14.72;100.00;99247.56;5002725;28;20041;-74
2021/10/12 05:26:22;;;;;;;48.88;26.95;;;;;;;14.76;100.00;99244.28;5002197;28;20272;-74
2021/10/12 05:28:49;;;;;;;47.83;27.23;;;;;;;14.72;100.00;99244.91;5002477;28;20089;-73
2021/10/12 05:31:15;;;;;;;46.92;26.23;;;;;;;14.74;100.00;99235.69;5002381;28;20045;-74
2021/10/12 05:33:43;;;;;;;51.45;26.17;;;;;;;14.94;100.00;99239.22;5001369;28;20038;-73
2021/10/12 05:36:08;;;;;;;63.60;29.25;;;;;;;15.02;100.00;99241.69;4988942;28;20042;-73
2021/10/12 05:38:34;;;;;;;83.13;35.00;;;;;;;15.05;100.00;99242.31;5002547;28;20044;-74
2021/10/12 05:40:59;;;;;;;76.75;32.83;;;;;;;14.99;100.00;99241.25;5001821;28;20097;-74
2021/10/12 05:43:25;;;;;;;47.10;25.05;;;;;;;15.13;99.88;99236.78;5002142;28;20089;-74
2021/10/12 05:45:50;;;;;;;49.22;25.70;;;;;;;15.23;98.97;99245.19;5002436;28;20038;-73
2021/10/12 05:48:17;;;;;;;52.45;29.50;;;;;;;15.13;99.69;99239.44;5002259;28;20081;-74
2021/10/12 05:50:44;;;;;;;66.30;37.05;;;;;;;15.01;100.00;99242.72;5002478;28;20045;-73
2021/10/12 05:53:32;;;;;;;67.95;37.40;;;;;;;15.06;100.00;99241.28;4988889;28;20042;-74
2021/10/12 06:00:52;;;;;;;69.38;34.92;;;;;;;15.09;100.00;99241.69;5001991;28;20069;-74
2021/10/12 06:03:18;;;;;;;64.80;32.53;;;;;;;15.09;100.00;99257.69;5002903;28;20278;-74
2021/10/12 06:05:43;;;;;;;57.90;29.17;;;;;;;15.09;100.00;99254.19;5006367;28;20042;-74
2021/10/12 06:08:08;;;;;;;51.13;25.15;;;;;;;15.06;100.00;99258.09;5005189;28;20133;-74
2021/10/12 06:10:36;;;;;;;43.95;24.15;;;;;;;15.14;100.00;99259.75;4996042;28;20051;-74
2021/10/12 06:13:08;;;;;;;47.13;24.83;;;;;;;15.05;100.00;99255.63;4995038;28;20038;-73
2021/10/12 06:15:33;;;;;;;47.90;26.45;;;;;;;15.00;100.00;99254.41;4995597;28;20043;-74
2021/10/12 06:17:58;;;;;;;53.00;26.85;;;;;;;14.91;100.00;99255.59;5000343;28;20037;-74
2021/10/12 06:20:24;;;;;;;55.78;26.73;;;;;;;14.85;100.00;99252.94;4987450;28;20320;-73
2021/10/12 06:22:49;;;;;;;51.22;26.38;;;;;;;14.76;100.00;99238.13;4997282;28;20026;-74
2021/10/12 06:25:15;;;;;;;58.20;29.23;;;;;;;14.86;100.00;99255.38;4998145;28;20097;-74
2021/10/12 06:27:42;;;;;;;52.60;28.98;;;;;;;14.90;100.00;99250.47;5004824;28;20093;-73
2021/10/12 06:30:08;;;;;;;53.17;28.20;;;;;;;14.90;100.00;99264.63;5002999;28;20042;-74
2021/10/12 06:32:33;;;;;;;48.00;26.90;;;;;;;14.98;100.00;99268.94;5002427;28;20041;-73
2021/10/12 06:34:59;;;;;;;46.85;24.73;;;;;;;15.14;100.00;99268.56;4996758;28;20050;-74
2021/10/12 06:37:24;;;;;;;48.03;26.27;;;;;;;15.16;100.00;99263.84;5000881;28;20046;-74
2021/10/12 06:39:50;;;;;;;41.30;22.48;;;;;;;15.34;100.00;99266.75;4995299;28;20047;-74
2021/10/12 06:42:15;;;;;;;32.88;19.48;;;;;;;15.28;100.00;99262.22;4996515;28;20101;-73
2021/10/12 06:44:41;;;;;;;34.33;19.38;;;;;;;15.36;100.00;99255.88;5002914;28;20023;-74
2021/10/12 06:47:06;;;;;;;40.75;20.52;;;;;;;15.39;99.95;99251.97;4999598;28;20034;-74
2021/10/12 06:49:32;;;;;;;31.58;19.23;;;;;;;15.52;99.93;99255.47;4994561;28;20030;-74
2021/10/12 06:51:57;;;;;;;37.72;21.33;;;;;;;15.67;100.00;99243.81;4990539;28;20022;-74
2021/10/12 06:54:22;;;;;;;47.50;23.45;;;;;;;15.76;99.96;99245.25;5009903;28;20034;-73
2021/10/12 06:56:49;;;;;;;43.38;24.83;;;;;;;15.63;100.00;99238.06;4999783;28;20244;-74
2021/10/12 06:59:14;;;;;;;46.13;26.73;;;;;;;15.52;100.00;99236.78;4998534;28;20299;-74
2021/10/12 07:01:40;;;;;;;39.03;23.02;;;;;;;15.65;100.00;99241.34;5005602;28;20027;-73
2021/10/12 07:04:05;;;;;;;36.85;19.50;;;;;;;15.69;100.00;99233.75;4997578;28;20053;-73
2021/10/12 07:06:31;;;;;;;27.88;16.33;;;;;;;15.78;99.86;99237.84;4990543;28;20084;-74
2021/10/12 07:08:56;;;;;;;28.73;15.55;;;;;;;15.59;100.00;99228.81;4998600;28;20059;-74
2021/10/12 07:11:21;;;;;;;35.67;22.02;;;;;;;15.68;99.45;99232.09;4999840;28;20105;-73
2021/10/12 07:13:48;;;;;;;37.17;22.77;;;;;;;15.50;100.00;99214.81;4997980;28;20215;-74
2021/10/12 07:16:14;;;;;;;48.30;27.05;;;;;;;15.54;100.00;99228.56;4997811;28;20078;-73
2021/10/12 07:18:39;;;;;;;46.63;23.45;;;;;;;15.59;100.00;99223.47;4996878;28;20394;-74
2021/10/12 07:21:05;;;;;;;42.55;24.63;;;;;;;15.75;100.00;99236.41;4999703;28;20038;-74
2021/10/12 07:23:30;;;;;;;35.20;21.65;;;;;;;15.68;100.00;99229.44;4997818;28;20038;-73
2021/10/12 07:25:55;;;;;;;35.65;21.50;;;;;;;15.58;100.00;99235.16;4998936;28;20080;-73
2021/10/12 07:28:21;;;;;;;44.13;23.98;;;;;;;15.70;100.00;99235.38;4998266;28;20038;-74
2021/10/12 07:30:46;;;;;;;35.60;20.90;;;;;;;15.58;100.00;99240.50;4997510;28;20089;-74
2021/10/12 07:33:12;;;;;;;31.88;19.48;;;;;;;15.65;100.00;99246.69;4999209;28;20030;-74
2021/10/12 07:35:43;;;;;;;27.38;17.40;;;;;;;15.54;100.00;99245.41;4997960;28;20046;-73
2021/10/12 07:38:09;;;;;;;27.52;16.08;;;;;;;15.56;100.00;99250.53;4997463;28;20253;-73
2021/10/12 07:40:35;;;;;;;27.23;16.75;;;;;;;15.77;100.00;99249.53;4997029;28;20030;-73
2021/10/12 07:43:00;;;;;;;26.52;16.40;;;;;;;15.81;100.00;99248.09;4997847;28;20041;-73
2021/10/12 07:45:26;;;;;;;36.45;20.15;;;;;;;15.58;100.00;99248.50;4996000;28;20038;-73
2021/10/12 07:47:52;;;;;;;41.08;23.75;;;;;;;15.60;100.00;99244.63;4999322;28;20035;-73
2021/10/12 07:50:17;;;;;;;42.60;23.33;;;;;;;15.48;100.00;99246.22;4998654;28;20102;-74
2021/10/12 07:52:44;;;;;;;43.47;23.67;;;;;;;15.44;100.00;99242.31;4997587;28;20034;-74
2021/10/12 07:57:35;;;;;;;44.03;22.00;;;;;;;15.81;100.00;99242.75;4996067;28;20038;-73
2021/10/12 08:00:00;;;;;;;36.35;21.50;;;;;;;15.72;100.00;99244.84;4997146;28;20033;-73
2021/10/12 08:02:25;;;;;;;33.58;19.63;;;;;;;15.95;100.00;99237.19;4998064;28;20058;-73
2021/10/12 08:04:51;;;;;;;32.00;19.33;;;;;;;15.95;100.00;99241.72;4997846;28;20045;-73
2021/10/12 08:07:16;;;;;;;33.13;17.73;;;;;;;15.79;100.00;99234.97;4997340;28;20042;-74
2021/10/12 08:09:42;;;;;;;29.13;18.02;;;;;;;15.88;100.00;99230.22;5010954;28;20030;-74
2021/10/12 08:12:07;;;;;;;32.22;19.45;;;;;;;15.90;100.00;99223.66;4996082;28;20025;-73
2021/10/12 08:14:39;;;;;;;32.33;19.20;;;;;;;16.23;100.00;99225.41;4997234;28;20236;-73
2021/10/12 08:17:05;;;;;;;31.77;19.25;;;;;;;16.21;100.00;99222.94;4996634;28;20230;-74
2021/10/12 08:19:30;;;;;;;41.53;20.05;;;;;;;16.18;100.00;99215.34;4998949;28;20038;-73
2021/10/12 08:21:56;;;;;;;29.88;18.02;;;;;;;16.20;100.00;99213.28;4995743;28;20022;-74
2021/10/12 08:24:21;;;;;;;23.05;15.27;;;;;;;16.06;100.00;99197.50;4998319;28;20026;-73
2021/10/12 08:26:49;;;;;;;23.65;13.80;;;;;;;16.22;100.00;99205.88;4995798;28;20041;-74
2021/10/12 08:29:14;;;;;;;22.83;12.85;;;;;;;16.21;100.00;99193.56;4995886;28;20085;-74
2021/10/12 08:31:40;;;;;;;19.75;13.07;;;;;;;16.43;100.00;99195.94;4998421;28;20038;-74
2021/10/12 08:34:05;;;;;;;25.90;15.75;;;;;;;16.49;100.00;99208.44;4997301;28;20038;-73
2021/10/12 08:36:31;;;;;;;24.80;15.52;;;;;;;16.50;100.00;99207.41;4995673;28;20105;-74
2021/10/12 08:38:57;;;;;;;23.77;14.90;;;;;;;16.49;100.00;99200.41;4996619;28;20090;-74
2021/10/12 08:41:27;;;;;;;22.10;14.75;;;;;;;16.47;100.00;99197.97;4997093;28;20315;-74
2021/10/12 08:43:54;;;;;;;19.50;13.10;;;;;;;16.38;100.00;99201.09;4996242;28;20018;-73
2021/10/12 08:46:23;;;;;;;23.52;16.52;;;;;;;16.38;100.00;99198.41;4993482;28;20363;-74
2021/10/12 08:48:48;;;;;;;18.90;11.60;;;;;;;16.28;99.44;99189.00;4994785;28;20022;-74
2021/10/12 08:51:14;;;;;;;17.55;12.90;;;;;;;16.50;99.38;99194.84;4997828;28;20069;-74
2021/10/12 08:53:39;;;;;;;19.48;11.27;;;;;;;16.36;99.40;99187.13;4996826;28;20113;-73
2021/10/12 08:56:06;;;;;;;19.17;12.50;;;;;;;16.34;99.56;99190.00;5011689;28;20370;-73
2021/10/12 08:58:32;;;;;;;29.20;15.27;;;;;;;16.26;99.98;99191.06;4996027;28;20018;-73
2021/10/12 09:01:11;;;;;;;34.10;22.50;;;;;;;16.24;99.66;99190.47;4995695;28;20034;-74
2021/10/12 09:06:29;;;;;;;25.67;17.83;;;;;;;16.16;100.00;99180.00;4997279;28;20220;-73
2021/10/12 09:09:02;;;;;;;21.85;15.07;;;;;;;16.14;100.00;99176.75;4996892;28;20034;-73
2021/10/12 09:11:29;;;;;;;22.67;15.15;;;;;;;16.22;100.00;99171.16;4996102;28;20256;-74
2021/10/12 09:14:04;;;;;;;19.13;12.60;;;;;;;16.03;100.00;99168.56;4995579;28;20342;-75
2021/10/12 09:16:41;;;;;;;16.42;12.60;;;;;;;15.93;100.00;99164.50;4995093;28;20045;-73
2021/10/12 09:19:08;;;;;;;12.13;9.50;;;;;;;15.85;100.00;99156.72;4994137;28;20030;-74
2021/10/12 09:21:39;;;;;;;9.85;8.20;;;;;;;15.71;100.00;99162.28;4995759;28;20099;-73
2021/10/12 09:24:08;;;;;;;12.80;9.77;;;;;;;15.53;100.00;99149.53;4997823;28;20034;-73
2021/10/12 09:26:40;;;;;;;14.15;9.48;;;;;;;15.48;100.00;99152.03;4995056;28;20026;-74
2021/10/12 09:29:12;;;;;;;11.80;9.63;;;;;;;15.45;100.00;99150.59;4996877;28;20320;-73
2021/10/12 09:31:43;;;;;;;14.95;8.50;;;;;;;15.44;100.00;99140.94;4997010;28;20030;-74
2021/10/12 09:34:10;;;;;;;15.35;9.40;;;;;;;15.30;100.00;99139.31;4995502;28;20057;-74
2021/10/12 09:36:44;;;;;;;12.98;7.97;;;;;;;15.21;100.00;99161.91;4993630;28;20030;-74
2021/10/12 09:39:14;;;;;;;9.65;7.03;;;;;;;15.22;100.00;99153.69;4997421;28;20262;-73
2021/10/12 09:41:44;;;;;;;17.52;10.90;;;;;;;15.17;100.00;99150.81;4997111;28;20038;-74
2021/10/12 09:44:17;;;;;;;18.30;9.90;;;;;;;15.10;100.00;99166.00;4994865;28;20045;-73
2021/10/12 09:46:45;;;;;;;20.53;10.63;;;;;;;14.95;100.00;99154.72;4995759;28;20219;-73
2021/10/12 09:49:15;;;;;;;13.55;7.35;;;;;;;14.88;100.00;99145.91;4996160;28;20641;-73
2021/10/12 09:52:04;;;;;;;9.85;6.68;;;;;;;14.77;100.00;99152.66;4997000;28;20137;-74
2021/10/12 09:54:31;;;;;;;13.05;5.72;;;;;;;14.78;100.00;99156.97;4996878;28;20042;-73
2021/10/12 09:56:59;;;;;;;10.23;5.93;;;;;;;14.79;100.00;99150.59;4996355;28;20054;-74
2021/10/12 09:59:25;;;;;;;8.73;5.97;;;;;;;14.75;100.00;99148.56;4994801;28;20038;-74
2021/10/12 10:01:52;;;;;;;7.45;5.50;;;;;;;14.58;100.00;99151.59;4997137;28;20038;-74
2021/10/12 10:04:19;;;;;;;10.80;5.10;;;;;;;14.56;100.00;99145.63;5011482;28;20255;-74
2021/10/12 10:06:50;;;;;;;8.15;5.43;;;;;;;14.64;100.00;99142.81;4994836;28;20018;-74
2021/10/12 10:09:18;;;;;;;7.07;4.72;;;;;;;14.48;100.00;99134.34;4996228;28;20109;-73
2021/10/12 10:11:44;;;;;;;9.35;5.90;;;;;;;14.44;100.00;99139.25;4995605;28;20064;-73
2021/10/12 10:14:14;;;;;;;7.97;4.47;;;;;;;14.44;100.00;99135.75;4994551;28;20264;-73
2021/10/12 10:16:42;;;;;;;7.38;4.00;;;;;;;14.40;100.00;99130.00;4996258;28;20048;-73
2021/10/12 10:19:15;;;;;;;4.22;3.30;;;;;;;14.39;100.00;99128.34;4995674;28;20049;-74
2021/10/12 10:21:45;;;;;;;6.28;4.18;;;;;;;14.33;100.00;99121.97;4994174;28;20096;-74
2021/10/12 10:24:13;;;;;;;6.55;4.38;;;;;;;14.53;100.00;99126.56;4995050;28;20320;-74
2021/10/12 10:26:40;;;;;;;4.85;3.80;;;;;;;14.49;100.00;99114.66;4997469;28;20031;-73
2021/10/12 10:29:36;;;;;;;10.35;6.95;;;;;;;14.56;100.00;99116.31;4996572;28;20065;-74
2021/10/12 10:32:12;;;;;;;5.60;4.10;;;;;;;14.42;100.00;99109.31;4996693;28;21234;-73
2021/10/12 10:34:40;;;;;;;7.88;5.07;;;;;;;14.25;100.00;99100.03;4993795;28;20295;-73
2021/10/12 10:37:15;;;;;;;5.47;3.58;;;;;;;14.22;100.00;99097.78;4996098;28;20276;-74
2021/10/12 10:39:42;;;;;;;3.97;3.03;;;;;;;14.17;100.00;99103.72;4995346;28;20299;-73
2021/10/12 10:42:43;;;;;;;5.38;3.83;;;;;;;14.19;100.00;99099.00;4993826;28;20034;-73
2021/10/12 10:45:10;;;;;;;4.65;3.15;;;;;;;13.97;100.00;99086.84;4994177;28;20346;-73
2021/10/12 10:47:44;;;;;;;5.45;2.88;;;;;;;14.06;100.00;99086.47;5008720;28;20023;-73
2021/10/12 10:50:15;;;;;;;;;;;;;;;14.11;100.00;99079.72;4999253;28;20077;-74
2021/10/12 10:52:50;;;;;;;7.03;4.35;;;;;;;14.13;100.00;99069.69;4998067;28;19921;-73
2021/10/12 10:55:19;;;;;;;;;;;;;;;14.10;100.00;99072.75;4998755;28;20363;-74
2021/10/12 10:58:03;;;;;;;11.85;6.07;;;;;;;14.24;100.00;99069.09;5000002;28;19992;-73
2021/10/12 11:00:44;;;;;;;9.25;6.55;;;;;;;14.07;100.00;99061.50;4998744;28;20046;-74
2021/10/12 11:03:32;;;;;;;13.57;7.78;;;;;;;14.18;100.00;99069.91;5013852;28;20112;-74
2021/10/12 11:06:17;;;;;;;14.73;5.40;;;;;;;14.11;100.00;99067.25;4998062;28;20042;-73
2021/10/12 11:09:03;;;;;;;8.70;4.40;;;;;;;14.07;100.00;99064.16;4998318;28;20089;-73
2021/10/12 11:11:36;;;;;;;6.53;3.80;;;;;;;14.02;100.00;99057.78;4996889;28;20333;-74
2021/10/12 11:14:03;;;;;;;10.32;5.20;;;;;;;14.10;100.00;99059.44;4997470;28;20312;-73
2021/10/12 11:16:36;;;;;;;9.38;5.63;;;;;;;14.16;100.00;99063.97;4998083;28;20034;-74
2021/10/12 11:19:03;;;;;;;8.48;4.75;;;;;;;13.98;100.00;99059.22;4999963;28;20025;-73
2021/10/12 11:21:29;;;;;;;6.35;4.53;;;;;;;14.08;100.00;99057.00;4998956;28;20787;-73
2021/10/12 11:23:57;;;;;;;6.78;3.40;;;;;;;13.86;100.00;99058.97;4996935;28;20037;-73